Terminal Aerodrome Forecast
Issued by NWS

Home | Current Version | Previous Version | Text Only | Print | Product List | Glossary On
Versions: 1 2 3 4 5 6 7 8 9 10 11 12 13 14 15 16 17 18 19 20 21 22 23
000
FTUS43 KILX 201108 AAA
TAFBMI
TAF AMD
KBMI 201108Z 2011/2106 17007KT P6SM SKC
     FM201700 14012KT P6SM SCT250
     FM210000 18006KT P6SM SCT250=

USA.gov is the U.S. government's official web portal to all federal, state and local government web resources and services.